sensor_id;sensor_type;location;lat;lon;timestamp;temperature;humidity
63260;DHT22;49390;51.380;0.098;2023-02-08T00:01:25;1.80;99.90
63260;DHT22;49390;51.380;0.098;2023-02-08T00:03:53;1.70;99.90
63260;DHT22;49390;51.380;0.098;2023-02-08T00:06:21;1.70;99.90
63260;DHT22;49390;51.380;0.098;2023-02-08T00:08:49;1.70;99.90
63260;DHT22;49390;51.380;0.098;2023-02-08T00:11:17;1.70;99.90
63260;DHT22;49390;51.380;0.098;2023-02-08T00:13:45;1.70;99.90
63260;DHT22;49390;51.380;0.098;2023-02-08T00:16:14;1.70;99.90
63260;DHT22;49390;51.380;0.098;2023-02-08T00:18:42;1.70;99.90
63260;DHT22;49390;51.380;0.098;2023-02-08T00:21:12;1.60;99.90
63260;DHT22;49390;51.380;0.098;2023-02-08T00:23:41;1.60;99.90
63260;DHT22;49390;51.380;0.098;2023-02-08T00:26:09;1.60;99.90
63260;DHT22;49390;51.380;0.098;2023-02-08T00:28:38;1.60;99.90
63260;DHT22;49390;51.380;0.098;2023-02-08T00:31:06;1.60;99.90
63260;DHT22;49390;51.380;0.098;2023-02-08T00:33:34;1.60;99.90
63260;DHT22;49390;51.380;0.098;2023-02-08T00:36:05;1.60;99.90
63260;DHT22;49390;51.380;0.098;2023-02-08T00:38:33;1.60;99.90
63260;DHT22;49390;51.380;0.098;2023-02-08T00:41:02;1.50;99.90
63260;DHT22;49390;51.380;0.098;2023-02-08T00:43:30;1.50;99.90
63260;DHT22;49390;51.380;0.098;2023-02-08T00:45:58;1.50;99.90
63260;DHT22;49390;51.380;0.098;2023-02-08T00:48:27;1.50;99.90
63260;DHT22;49390;51.380;0.098;2023-02-08T00:51:08;1.40;99.90
63260;DHT22;49390;51.380;0.098;2023-02-08T00:53:38;1.40;99.90
63260;DHT22;49390;51.380;0.098;2023-02-08T00:56:07;1.40;99.90
63260;DHT22;49390;51.380;0.098;2023-02-08T00:58:39;1.40;99.90
63260;DHT22;49390;51.380;0.098;2023-02-08T01:01:07;1.30;99.90
63260;DHT22;49390;51.380;0.098;2023-02-08T01:03:38;1.30;99.90
63260;DHT22;49390;51.380;0.098;2023-02-08T01:06:09;1.30;99.90
63260;DHT22;49390;51.380;0.098;2023-02-08T01:08:37;1.30;99.90
63260;DHT22;49390;51.380;0.098;2023-02-08T01:11:08;1.30;99.90
63260;DHT22;49390;51.380;0.098;2023-02-08T01:13:37;1.30;99.90
63260;DHT22;49390;51.380;0.098;2023-02-08T01:18:42;1.20;99.90
63260;DHT22;49390;51.380;0.098;2023-02-08T01:21:13;1.20;99.90
63260;DHT22;49390;51.380;0.098;2023-02-08T01:23:44;1.20;99.90
63260;DHT22;49390;51.380;0.098;2023-02-08T01:26:13;1.20;99.90
63260;DHT22;49390;51.380;0.098;2023-02-08T01:28:41;1.20;99.90
63260;DHT22;49390;51.380;0.098;2023-02-08T01:31:35;1.10;99.90
63260;DHT22;49390;51.380;0.098;2023-02-08T01:34:04;1.00;99.90
63260;DHT22;49390;51.380;0.098;2023-02-08T01:36:33;1.00;99.90
63260;DHT22;49390;51.380;0.098;2023-02-08T01:39:01;1.00;99.90
63260;DHT22;49390;51.380;0.098;2023-02-08T01:41:33;0.90;99.90
63260;DHT22;49390;51.380;0.098;2023-02-08T01:46:40;0.90;99.90
63260;DHT22;49390;51.380;0.098;2023-02-08T01:52:05;0.90;99.90
63260;DHT22;49390;51.380;0.098;2023-02-08T01:54:41;0.90;99.90
63260;DHT22;49390;51.380;0.098;2023-02-08T01:57:11;0.80;99.90
63260;DHT22;49390;51.380;0.098;2023-02-08T02:00:05;0.80;99.90
63260;DHT22;49390;51.380;0.098;2023-02-08T02:02:41;0.80;99.90
63260;DHT22;49390;51.380;0.098;2023-02-08T02:05:11;0.70;99.90
63260;DHT22;49390;51.380;0.098;2023-02-08T02:07:39;0.70;99.90
63260;DHT22;49390;51.380;0.098;2023-02-08T02:10:19;0.70;99.90
63260;DHT22;49390;51.380;0.098;2023-02-08T02:12:54;0.70;99.90
63260;DHT22;49390;51.380;0.098;2023-02-08T02:15:23;0.70;99.90
63260;DHT22;49390;51.380;0.098;2023-02-08T02:17:51;0.70;99.90
63260;DHT22;49390;51.380;0.098;2023-02-08T02:23:21;0.60;99.90
63260;DHT22;49390;51.380;0.098;2023-02-08T02:26:02;0.60;99.90
63260;DHT22;49390;51.380;0.098;2023-02-08T02:46:49;0.50;99.90
63260;DHT22;49390;51.380;0.098;2023-02-08T02:49:26;0.40;99.90
63260;DHT22;49390;51.380;0.098;2023-02-08T02:52:15;0.40;99.90
63260;DHT22;49390;51.380;0.098;2023-02-08T02:54:49;0.40;99.90
63260;DHT22;49390;51.380;0.098;2023-02-08T02:57:25;0.40;99.90
63260;DHT22;49390;51.380;0.098;2023-02-08T02:59:54;0.40;99.90
63260;DHT22;49390;51.380;0.098;2023-02-08T03:02:26;0.40;99.90
63260;DHT22;49390;51.380;0.098;2023-02-08T03:04:55;0.40;99.90
63260;DHT22;49390;51.380;0.098;2023-02-08T03:16:17;0.40;99.90
63260;DHT22;49390;51.380;0.098;2023-02-08T03:27:15;0.40;99.90
63260;DHT22;49390;51.380;0.098;2023-02-08T03:32:18;0.40;99.90
63260;DHT22;49390;51.380;0.098;2023-02-08T03:40:40;0.50;99.90
63260;DHT22;49390;51.380;0.098;2023-02-08T03:43:33;0.40;99.90
63260;DHT22;49390;51.380;0.098;2023-02-08T03:46:24;0.40;99.90
63260;DHT22;49390;51.380;0.098;2023-02-08T03:48:58;0.50;99.90
63260;DHT22;49390;51.380;0.098;2023-02-08T03:51:29;0.40;99.90
63260;DHT22;49390;51.380;0.098;2023-02-08T03:54:00;0.50;99.90
63260;DHT22;49390;51.380;0.098;2023-02-08T03:56:37;0.50;99.90
63260;DHT22;49390;51.380;0.098;2023-02-08T03:59:11;0.40;99.90
63260;DHT22;49390;51.380;0.098;2023-02-08T04:01:44;0.40;99.90
63260;DHT22;49390;51.380;0.098;2023-02-08T04:04:14;0.40;99.90
63260;DHT22;49390;51.380;0.098;2023-02-08T04:06:44;0.30;99.90
63260;DHT22;49390;51.380;0.098;2023-02-08T04:09:12;0.50;99.90
63260;DHT22;49390;51.380;0.098;2023-02-08T04:11:40;0.30;99.90
63260;DHT22;49390;51.380;0.098;2023-02-08T04:14:08;0.30;99.90
63260;DHT22;49390;51.380;0.098;2023-02-08T04:16:36;0.30;99.90
63260;DHT22;49390;51.380;0.098;2023-02-08T04:19:04;0.20;99.90
63260;DHT22;49390;51.380;0.098;2023-02-08T04:21:32;0.20;99.90
63260;DHT22;49390;51.380;0.098;2023-02-08T04:23:59;0.20;99.90
63260;DHT22;49390;51.380;0.098;2023-02-08T04:26:28;0.20;99.90
63260;DHT22;49390;51.380;0.098;2023-02-08T04:28:56;0.20;99.90
63260;DHT22;49390;51.380;0.098;2023-02-08T04:31:24;0.20;99.90
63260;DHT22;49390;51.380;0.098;2023-02-08T04:33:52;0.20;99.90
63260;DHT22;49390;51.380;0.098;2023-02-08T04:36:20;0.20;99.90
63260;DHT22;49390;51.380;0.098;2023-02-08T04:38:47;0.20;99.90
63260;DHT22;49390;51.380;0.098;2023-02-08T04:41:16;0.10;99.90
63260;DHT22;49390;51.380;0.098;2023-02-08T04:43:44;0.20;99.90
63260;DHT22;49390;51.380;0.098;2023-02-08T04:46:12;0.20;99.90
63260;DHT22;49390;51.380;0.098;2023-02-08T04:48:39;0.10;99.90
63260;DHT22;49390;51.380;0.098;2023-02-08T04:51:10;0.10;99.90
63260;DHT22;49390;51.380;0.098;2023-02-08T04:53:38;0.10;99.90
63260;DHT22;49390;51.380;0.098;2023-02-08T04:56:06;0.00;99.90
63260;DHT22;49390;51.380;0.098;2023-02-08T04:58:35;0.00;99.90
63260;DHT22;49390;51.380;0.098;2023-02-08T05:01:07;0.00;99.90
63260;DHT22;49390;51.380;0.098;2023-02-08T05:03:37;0.00;99.90
63260;DHT22;49390;51.380;0.098;2023-02-08T05:06:05;-0.10;99.90
63260;DHT22;49390;51.380;0.098;2023-02-08T05:08:33;-0.10;99.90
63260;DHT22;49390;51.380;0.098;2023-02-08T05:11:01;-0.20;99.90
63260;DHT22;49390;51.380;0.098;2023-02-08T05:13:29;-0.10;99.90
63260;DHT22;49390;51.380;0.098;2023-02-08T05:15:57;-0.20;99.90
63260;DHT22;49390;51.380;0.098;2023-02-08T05:18:25;-0.20;99.90
63260;DHT22;49390;51.380;0.098;2023-02-08T05:20:58;-0.20;99.90
63260;DHT22;49390;51.380;0.098;2023-02-08T05:23:26;-0.20;99.90
63260;DHT22;49390;51.380;0.098;2023-02-08T05:25:54;-0.20;99.90
63260;DHT22;49390;51.380;0.098;2023-02-08T05:28:22;-0.30;99.90
63260;DHT22;49390;51.380;0.098;2023-02-08T05:30:51;-0.40;99.90
63260;DHT22;49390;51.380;0.098;2023-02-08T05:33:19;-0.40;99.90
63260;DHT22;49390;51.380;0.098;2023-02-08T05:35:47;-0.40;99.90
63260;DHT22;49390;51.380;0.098;2023-02-08T05:38:14;-0.50;99.90
63260;DHT22;49390;51.380;0.098;2023-02-08T05:40:42;-0.50;99.90
63260;DHT22;49390;51.380;0.098;2023-02-08T05:43:10;-0.50;99.90
63260;DHT22;49390;51.380;0.098;2023-02-08T05:45:38;-0.50;99.90
63260;DHT22;49390;51.380;0.098;2023-02-08T05:48:06;-0.50;99.90
63260;DHT22;49390;51.380;0.098;2023-02-08T05:50:34;-0.50;99.90
63260;DHT22;49390;51.380;0.098;2023-02-08T05:53:02;-0.50;99.90
63260;DHT22;49390;51.380;0.098;2023-02-08T05:55:30;-0.60;99.90
63260;DHT22;49390;51.380;0.098;2023-02-08T05:57:57;-0.60;99.90
63260;DHT22;49390;51.380;0.098;2023-02-08T06:00:28;-0.60;99.90
63260;DHT22;49390;51.380;0.098;2023-02-08T06:02:56;-0.60;99.90
63260;DHT22;49390;51.380;0.098;2023-02-08T06:05:25;-0.60;99.90
63260;DHT22;49390;51.380;0.098;2023-02-08T06:07:52;-0.60;99.90
63260;DHT22;49390;51.380;0.098;2023-02-08T06:10:20;-0.60;99.90
63260;DHT22;49390;51.380;0.098;2023-02-08T06:12:48;-0.60;99.90
63260;DHT22;49390;51.380;0.098;2023-02-08T06:15:17;-0.60;99.90
63260;DHT22;49390;51.380;0.098;2023-02-08T06:17:45;-0.60;99.90
63260;DHT22;49390;51.380;0.098;2023-02-08T06:20:13;-0.60;99.90
63260;DHT22;49390;51.380;0.098;2023-02-08T06:22:41;-0.70;99.90
63260;DHT22;49390;51.380;0.098;2023-02-08T06:25:09;-0.70;99.90
63260;DHT22;49390;51.380;0.098;2023-02-08T06:27:42;-0.70;99.90
63260;DHT22;49390;51.380;0.098;2023-02-08T06:30:10;-0.80;99.90
63260;DHT22;49390;51.380;0.098;2023-02-08T06:32:38;-0.70;99.90
63260;DHT22;49390;51.380;0.098;2023-02-08T06:35:07;-0.70;99.90
63260;DHT22;49390;51.380;0.098;2023-02-08T06:39:51;-0.80;99.90
63260;DHT22;49390;51.380;0.098;2023-02-08T06:42:22;-0.80;99.90
63260;DHT22;49390;51.380;0.098;2023-02-08T06:44:50;-0.90;99.90
63260;DHT22;49390;51.380;0.098;2023-02-08T06:47:23;-1.00;99.90
63260;DHT22;49390;51.380;0.098;2023-02-08T06:49:51;-0.90;99.90
63260;DHT22;49390;51.380;0.098;2023-02-08T06:52:22;-0.90;99.90
63260;DHT22;49390;51.380;0.098;2023-02-08T06:54:50;-0.80;99.90
63260;DHT22;49390;51.380;0.098;2023-02-08T06:57:18;-0.90;99.90
63260;DHT22;49390;51.380;0.098;2023-02-08T06:59:46;-1.00;99.90
63260;DHT22;49390;51.380;0.098;2023-02-08T07:02:16;-0.90;99.90
63260;DHT22;49390;51.380;0.098;2023-02-08T07:04:45;-1.00;99.90
63260;DHT22;49390;51.380;0.098;2023-02-08T07:07:14;-1.00;99.90
63260;DHT22;49390;51.380;0.098;2023-02-08T07:09:43;-1.00;99.90
63260;DHT22;49390;51.380;0.098;2023-02-08T07:12:11;-1.00;99.90
63260;DHT22;49390;51.380;0.098;2023-02-08T07:14:41;-0.90;99.90
63260;DHT22;49390;51.380;0.098;2023-02-08T07:17:10;-1.00;99.90
63260;DHT22;49390;51.380;0.098;2023-02-08T07:19:39;-1.00;99.90
63260;DHT22;49390;51.380;0.098;2023-02-08T07:22:07;-1.00;99.90
63260;DHT22;49390;51.380;0.098;2023-02-08T07:24:36;-1.00;99.90
63260;DHT22;49390;51.380;0.098;2023-02-08T07:27:06;-1.10;99.90
63260;DHT22;49390;51.380;0.098;2023-02-08T07:29:38;-1.10;99.90
63260;DHT22;49390;51.380;0.098;2023-02-08T07:32:07;-1.10;99.90
63260;DHT22;49390;51.380;0.098;2023-02-08T07:34:36;-1.10;99.90
63260;DHT22;49390;51.380;0.098;2023-02-08T07:37:05;-1.10;99.90
63260;DHT22;49390;51.380;0.098;2023-02-08T07:39:33;-1.10;99.90
63260;DHT22;49390;51.380;0.098;2023-02-08T07:42:01;-1.10;99.90
63260;DHT22;49390;51.380;0.098;2023-02-08T07:44:38;-1.10;99.90
63260;DHT22;49390;51.380;0.098;2023-02-08T07:47:06;-1.00;99.90
63260;DHT22;49390;51.380;0.098;2023-02-08T07:49:34;-1.00;99.90
63260;DHT22;49390;51.380;0.098;2023-02-08T07:52:02;-1.00;99.90
63260;DHT22;49390;51.380;0.098;2023-02-08T07:54:30;-1.00;99.90
63260;DHT22;49390;51.380;0.098;2023-02-08T07:56:58;-1.00;99.90
63260;DHT22;49390;51.380;0.098;2023-02-08T07:59:29;-1.00;99.90
63260;DHT22;49390;51.380;0.098;2023-02-08T08:01:58;-0.90;99.90
63260;DHT22;49390;51.380;0.098;2023-02-08T08:04:26;-1.00;99.90
63260;DHT22;49390;51.380;0.098;2023-02-08T08:06:54;-0.90;99.90
63260;DHT22;49390;51.380;0.098;2023-02-08T08:09:22;-1.00;99.90
63260;DHT22;49390;51.380;0.098;2023-02-08T08:11:51;-1.00;99.90
63260;DHT22;49390;51.380;0.098;2023-02-08T08:14:18;-1.00;99.90
63260;DHT22;49390;51.380;0.098;2023-02-08T08:16:47;-0.90;99.90
63260;DHT22;49390;51.380;0.098;2023-02-08T08:19:14;-0.90;99.90
63260;DHT22;49390;51.380;0.098;2023-02-08T08:21:43;-0.90;99.90
63260;DHT22;49390;51.380;0.098;2023-02-08T08:24:10;-0.90;99.90
63260;DHT22;49390;51.380;0.098;2023-02-08T08:26:39;-0.80;99.90
63260;DHT22;49390;51.380;0.098;2023-02-08T08:29:06;-0.80;99.90
63260;DHT22;49390;51.380;0.098;2023-02-08T08:31:36;-0.80;99.90
63260;DHT22;49390;51.380;0.098;2023-02-08T08:34:06;-0.70;99.90
63260;DHT22;49390;51.380;0.098;2023-02-08T08:36:34;-0.70;99.90
63260;DHT22;49390;51.380;0.098;2023-02-08T08:39:02;-0.60;99.90
63260;DHT22;49390;51.380;0.098;2023-02-08T08:41:30;-0.50;99.90
63260;DHT22;49390;51.380;0.098;2023-02-08T08:43:58;-0.50;99.90
63260;DHT22;49390;51.380;0.098;2023-02-08T08:46:26;-0.50;99.90
63260;DHT22;49390;51.380;0.098;2023-02-08T08:48:57;-0.40;99.90
63260;DHT22;49390;51.380;0.098;2023-02-08T08:51:25;-0.40;99.90
63260;DHT22;49390;51.380;0.098;2023-02-08T08:53:52;-0.30;99.90
63260;DHT22;49390;51.380;0.098;2023-02-08T08:56:20;-0.30;99.90
63260;DHT22;49390;51.380;0.098;2023-02-08T08:58:48;-0.20;99.90
63260;DHT22;49390;51.380;0.098;2023-02-08T09:01:16;-0.20;99.90
63260;DHT22;49390;51.380;0.098;2023-02-08T09:03:44;-0.20;99.90
63260;DHT22;49390;51.380;0.098;2023-02-08T09:06:13;-0.10;99.90
63260;DHT22;49390;51.380;0.098;2023-02-08T09:08:41;-0.10;99.90
63260;DHT22;49390;51.380;0.098;2023-02-08T09:11:11;-0.10;99.90
63260;DHT22;49390;51.380;0.098;2023-02-08T09:13:41;0.10;99.90
63260;DHT22;49390;51.380;0.098;2023-02-08T09:16:13;0.10;99.90
63260;DHT22;49390;51.380;0.098;2023-02-08T09:18:42;0.30;99.90
63260;DHT22;49390;51.380;0.098;2023-02-08T09:21:14;0.40;99.90
63260;DHT22;49390;51.380;0.098;2023-02-08T09:23:42;0.70;99.90
63260;DHT22;49390;51.380;0.098;2023-02-08T09:26:12;0.80;99.90
63260;DHT22;49390;51.380;0.098;2023-02-08T09:28:41;1.10;99.90
63260;DHT22;49390;51.380;0.098;2023-02-08T09:31:19;1.40;99.90
63260;DHT22;49390;51.380;0.098;2023-02-08T09:33:49;1.60;99.90
63260;DHT22;49390;51.380;0.098;2023-02-08T09:36:21;1.90;99.90
63260;DHT22;49390;51.380;0.098;2023-02-08T09:38:55;2.00;99.90
63260;DHT22;49390;51.380;0.098;2023-02-08T09:47:34;2.50;99.90
63260;DHT22;49390;51.380;0.098;2023-02-08T09:52:57;2.60;99.90
63260;DHT22;49390;51.380;0.098;2023-02-08T09:55:35;2.90;99.90
63260;DHT22;49390;51.380;0.098;2023-02-08T09:58:23;3.00;99.90
63260;DHT22;49390;51.380;0.098;2023-02-08T10:00:54;3.10;99.90
63260;DHT22;49390;51.380;0.098;2023-02-08T10:03:36;3.20;99.90
63260;DHT22;49390;51.380;0.098;2023-02-08T10:06:07;3.30;99.90
63260;DHT22;49390;51.380;0.098;2023-02-08T10:08:36;3.40;99.90
63260;DHT22;49390;51.380;0.098;2023-02-08T10:25:48;4.10;99.90
63260;DHT22;49390;51.380;0.098;2023-02-08T10:28:38;4.30;99.90
63260;DHT22;49390;51.380;0.098;2023-02-08T10:31:17;4.40;99.90
63260;DHT22;49390;51.380;0.098;2023-02-08T10:36:30;4.70;99.90
63260;DHT22;49390;51.380;0.098;2023-02-08T10:39:03;4.80;99.90
63260;DHT22;49390;51.380;0.098;2023-02-08T10:41:36;4.90;99.90
63260;DHT22;49390;51.380;0.098;2023-02-08T10:44:23;5.00;99.90
63260;DHT22;49390;51.380;0.098;2023-02-08T10:49:56;5.20;99.90
63260;DHT22;49390;51.380;0.098;2023-02-08T10:52:24;5.30;99.90
63260;DHT22;49390;51.380;0.098;2023-02-08T10:54:56;5.40;99.90
63260;DHT22;49390;51.380;0.098;2023-02-08T10:57:31;5.50;99.90
63260;DHT22;49390;51.380;0.098;2023-02-08T11:00:04;5.50;99.90
63260;DHT22;49390;51.380;0.098;2023-02-08T11:02:39;5.60;99.90
63260;DHT22;49390;51.380;0.098;2023-02-08T11:05:34;5.70;99.90
63260;DHT22;49390;51.380;0.098;2023-02-08T11:08:15;5.90;99.90
63260;DHT22;49390;51.380;0.098;2023-02-08T11:11:02;6.00;99.90
63260;DHT22;49390;51.380;0.098;2023-02-08T11:13:42;6.10;99.90
63260;DHT22;49390;51.380;0.098;2023-02-08T11:16:12;6.20;99.90
63260;DHT22;49390;51.380;0.098;2023-02-08T11:18:53;6.30;99.90
63260;DHT22;49390;51.380;0.098;2023-02-08T11:21:39;6.40;99.90
63260;DHT22;49390;51.380;0.098;2023-02-08T11:26:42;6.60;99.90
63260;DHT22;49390;51.380;0.098;2023-02-08T11:29:14;6.70;99.90
63260;DHT22;49390;51.380;0.098;2023-02-08T11:34:36;6.80;99.90
63260;DHT22;49390;51.380;0.098;2023-02-08T11:37:17;7.00;99.90
63260;DHT22;49390;51.380;0.098;2023-02-08T11:39:55;7.10;99.90
63260;DHT22;49390;51.380;0.098;2023-02-08T11:42:27;7.10;99.90
63260;DHT22;49390;51.380;0.098;2023-02-08T11:44:57;7.20;99.90
63260;DHT22;49390;51.380;0.098;2023-02-08T11:47:34;7.30;99.90
63260;DHT22;49390;51.380;0.098;2023-02-08T11:50:06;7.40;99.90
63260;DHT22;49390;51.380;0.098;2023-02-08T11:52:37;7.50;99.90
63260;DHT22;49390;51.380;0.098;2023-02-08T11:55:34;7.60;99.90
63260;DHT22;49390;51.380;0.098;2023-02-08T11:58:03;7.60;99.90
63260;DHT22;49390;51.380;0.098;2023-02-08T12:00:34;7.70;99.90
63260;DHT22;49390;51.380;0.098;2023-02-08T12:03:04;7.80;99.90
63260;DHT22;49390;51.380;0.098;2023-02-08T12:20:00;8.30;92.20
63260;DHT22;49390;51.380;0.098;2023-02-08T12:22:30;8.30;90.60
63260;DHT22;49390;51.380;0.098;2023-02-08T12:31:12;8.40;83.30
63260;DHT22;49390;51.380;0.098;2023-02-08T12:40:11;8.60;77.70
63260;DHT22;49390;51.380;0.098;2023-02-08T12:56:31;8.70;69.10
63260;DHT22;49390;51.380;0.098;2023-02-08T12:59:02;8.80;68.50
63260;DHT22;49390;51.380;0.098;2023-02-08T13:01:44;8.80;68.60
63260;DHT22;49390;51.380;0.098;2023-02-08T13:04:19;8.80;68.50
63260;DHT22;49390;51.380;0.098;2023-02-08T13:06:53;8.90;68.90
63260;DHT22;49390;51.380;0.098;2023-02-08T13:17:27;9.00;68.60
63260;DHT22;49390;51.380;0.098;2023-02-08T13:20:04;9.10;68.20
63260;DHT22;49390;51.380;0.098;2023-02-08T13:22:38;9.10;68.10
63260;DHT22;49390;51.380;0.098;2023-02-08T13:25:18;9.10;65.50
63260;DHT22;49390;51.380;0.098;2023-02-08T13:27:48;9.10;64.90
63260;DHT22;49390;51.380;0.098;2023-02-08T13:30:18;9.10;65.20
63260;DHT22;49390;51.380;0.098;2023-02-08T13:32:49;9.10;64.60
63260;DHT22;49390;51.380;0.098;2023-02-08T13:35:28;9.10;62.80
63260;DHT22;49390;51.380;0.098;2023-02-08T13:38:06;9.10;62.70
63260;DHT22;49390;51.380;0.098;2023-02-08T13:40:36;9.10;62.60
63260;DHT22;49390;51.380;0.098;2023-02-08T13:43:06;9.10;62.80
63260;DHT22;49390;51.380;0.098;2023-02-08T13:45:39;9.00;63.30
63260;DHT22;49390;51.380;0.098;2023-02-08T13:48:13;9.00;63.90
63260;DHT22;49390;51.380;0.098;2023-02-08T13:50:48;9.10;63.70
63260;DHT22;49390;51.380;0.098;2023-02-08T13:53:18;9.10;63.90
63260;DHT22;49390;51.380;0.098;2023-02-08T13:56:11;9.10;64.20
63260;DHT22;49390;51.380;0.098;2023-02-08T14:06:47;9.00;66.60
63260;DHT22;49390;51.380;0.098;2023-02-08T14:09:32;9.00;67.40
63260;DHT22;49390;51.380;0.098;2023-02-08T14:12:25;9.00;68.00
63260;DHT22;49390;51.380;0.098;2023-02-08T14:17:33;9.00;69.50
63260;DHT22;49390;51.380;0.098;2023-02-08T14:20:05;9.00;70.00
63260;DHT22;49390;51.380;0.098;2023-02-08T14:22:39;8.90;69.70
63260;DHT22;49390;51.380;0.098;2023-02-08T14:25:16;8.90;69.00
63260;DHT22;49390;51.380;0.098;2023-02-08T14:27:53;9.00;69.30
63260;DHT22;49390;51.380;0.098;2023-02-08T14:30:41;8.90;69.80
63260;DHT22;49390;51.380;0.098;2023-02-08T14:33:17;9.00;70.60
63260;DHT22;49390;51.380;0.098;2023-02-08T14:35:57;9.00;71.10
63260;DHT22;49390;51.380;0.098;2023-02-08T14:38:33;9.00;71.30
63260;DHT22;49390;51.380;0.098;2023-02-08T14:41:03;9.00;70.00
63260;DHT22;49390;51.380;0.098;2023-02-08T14:43:33;9.00;69.90
63260;DHT22;49390;51.380;0.098;2023-02-08T14:49:14;8.90;69.80
63260;DHT22;49390;51.380;0.098;2023-02-08T14:51:50;9.00;69.50
63260;DHT22;49390;51.380;0.098;2023-02-08T14:54:31;9.00;69.90
63260;DHT22;49390;51.380;0.098;2023-02-08T14:57:04;9.00;69.70
63260;DHT22;49390;51.380;0.098;2023-02-08T14:59:33;9.00;69.20
63260;DHT22;49390;51.380;0.098;2023-02-08T15:02:10;8.90;69.20
63260;DHT22;49390;51.380;0.098;2023-02-08T15:04:43;8.90;69.50
63260;DHT22;49390;51.380;0.098;2023-02-08T15:10:12;8.80;69.60
63260;DHT22;49390;51.380;0.098;2023-02-08T15:12:44;8.90;68.60
63260;DHT22;49390;51.380;0.098;2023-02-08T15:15:40;8.80;67.50
63260;DHT22;49390;51.380;0.098;2023-02-08T15:18:19;8.80;66.80
63260;DHT22;49390;51.380;0.098;2023-02-08T15:23:28;8.80;63.10
63260;DHT22;49390;51.380;0.098;2023-02-08T15:26:02;8.80;63.20
63260;DHT22;49390;51.380;0.098;2023-02-08T15:28:34;8.70;63.20
63260;DHT22;49390;51.380;0.098;2023-02-08T15:31:03;8.70;63.20
63260;DHT22;49390;51.380;0.098;2023-02-08T15:33:33;8.70;63.10
63260;DHT22;49390;51.380;0.098;2023-02-08T15:36:29;8.60;64.30
63260;DHT22;49390;51.380;0.098;2023-02-08T15:39:00;8.60;63.70
63260;DHT22;49390;51.380;0.098;2023-02-08T15:41:31;8.50;64.00
63260;DHT22;49390;51.380;0.098;2023-02-08T15:44:25;8.50;64.50
63260;DHT22;49390;51.380;0.098;2023-02-08T15:47:04;8.50;64.80
63260;DHT22;49390;51.380;0.098;2023-02-08T15:49:38;8.40;65.30
63260;DHT22;49390;51.380;0.098;2023-02-08T15:52:07;8.40;65.70
63260;DHT22;49390;51.380;0.098;2023-02-08T15:54:39;8.30;66.00
63260;DHT22;49390;51.380;0.098;2023-02-08T15:59:56;8.20;66.80
63260;DHT22;49390;51.380;0.098;2023-02-08T16:02:31;8.20;67.20
63260;DHT22;49390;51.380;0.098;2023-02-08T16:05:09;8.10;67.40
63260;DHT22;49390;51.380;0.098;2023-02-08T16:07:43;8.10;67.70
63260;DHT22;49390;51.380;0.098;2023-02-08T16:12:57;8.00;68.70
63260;DHT22;49390;51.380;0.098;2023-02-08T16:18:01;7.90;69.70
63260;DHT22;49390;51.380;0.098;2023-02-08T16:20:31;7.90;70.10
63260;DHT22;49390;51.380;0.098;2023-02-08T16:23:02;7.90;70.50
63260;DHT22;49390;51.380;0.098;2023-02-08T16:25:35;7.90;70.90
63260;DHT22;49390;51.380;0.098;2023-02-08T16:28:05;7.80;71.20
63260;DHT22;49390;51.380;0.098;2023-02-08T16:30:33;7.80;71.70
63260;DHT22;49390;51.380;0.098;2023-02-08T16:33:06;7.80;72.10
63260;DHT22;49390;51.380;0.098;2023-02-08T16:35:37;7.80;72.50
63260;DHT22;49390;51.380;0.098;2023-02-08T16:38:07;7.70;72.80
63260;DHT22;49390;51.380;0.098;2023-02-08T16:40:44;7.60;73.20
63260;DHT22;49390;51.380;0.098;2023-02-08T16:53:50;7.40;75.70
63260;DHT22;49390;51.380;0.098;2023-02-08T16:56:19;7.30;76.40
63260;DHT22;49390;51.380;0.098;2023-02-08T16:58:47;7.30;76.90
63260;DHT22;49390;51.380;0.098;2023-02-08T17:01:15;7.20;77.50
63260;DHT22;49390;51.380;0.098;2023-02-08T17:03:43;7.10;78.10
63260;DHT22;49390;51.380;0.098;2023-02-08T17:08:58;7.00;79.60
63260;DHT22;49390;51.380;0.098;2023-02-08T17:11:30;7.00;80.20
63260;DHT22;49390;51.380;0.098;2023-02-08T17:13:58;6.90;80.90
63260;DHT22;49390;51.380;0.098;2023-02-08T17:16:29;6.90;81.70
63260;DHT22;49390;51.380;0.098;2023-02-08T17:19:00;6.80;82.60
63260;DHT22;49390;51.380;0.098;2023-02-08T17:21:28;6.80;83.50
63260;DHT22;49390;51.380;0.098;2023-02-08T17:23:57;6.70;84.50
63260;DHT22;49390;51.380;0.098;2023-02-08T17:26:42;6.70;85.50
63260;DHT22;49390;51.380;0.098;2023-02-08T17:29:11;6.60;86.90
63260;DHT22;49390;51.380;0.098;2023-02-08T17:31:39;6.60;88.10
63260;DHT22;49390;51.380;0.098;2023-02-08T17:34:07;6.50;89.40
63260;DHT22;49390;51.380;0.098;2023-02-08T17:36:36;6.50;90.40
63260;DHT22;49390;51.380;0.098;2023-02-08T17:39:04;6.40;91.10
63260;DHT22;49390;51.380;0.098;2023-02-08T17:41:32;6.30;91.80
63260;DHT22;49390;51.380;0.098;2023-02-08T17:44:00;6.30;92.90
63260;DHT22;49390;51.380;0.098;2023-02-08T17:46:29;6.20;93.20
63260;DHT22;49390;51.380;0.098;2023-02-08T17:48:57;6.20;93.80
63260;DHT22;49390;51.380;0.098;2023-02-08T17:51:30;6.10;94.40
63260;DHT22;49390;51.380;0.098;2023-02-08T17:54:04;6.10;94.90
63260;DHT22;49390;51.380;0.098;2023-02-08T17:56:33;6.00;95.30
63260;DHT22;49390;51.380;0.098;2023-02-08T17:59:02;6.00;95.60
63260;DHT22;49390;51.380;0.098;2023-02-08T18:01:34;5.90;95.70
63260;DHT22;49390;51.380;0.098;2023-02-08T18:04:02;5.90;95.40
63260;DHT22;49390;51.380;0.098;2023-02-08T18:06:30;5.90;95.30
63260;DHT22;49390;51.380;0.098;2023-02-08T18:08:58;5.80;95.20
63260;DHT22;49390;51.380;0.098;2023-02-08T18:11:26;5.80;95.30
63260;DHT22;49390;51.380;0.098;2023-02-08T18:13:56;5.70;95.40
63260;DHT22;49390;51.380;0.098;2023-02-08T18:16:26;5.70;95.50
63260;DHT22;49390;51.380;0.098;2023-02-08T18:18:55;5.70;95.30
63260;DHT22;49390;51.380;0.098;2023-02-08T18:21:24;5.60;94.90
63260;DHT22;49390;51.380;0.098;2023-02-08T18:23:52;5.60;94.80
63260;DHT22;49390;51.380;0.098;2023-02-08T18:26:23;5.50;94.90
63260;DHT22;49390;51.380;0.098;2023-02-08T18:28:51;5.50;95.30
63260;DHT22;49390;51.380;0.098;2023-02-08T18:31:25;5.40;95.90
63260;DHT22;49390;51.380;0.098;2023-02-08T18:33:55;5.40;96.50
63260;DHT22;49390;51.380;0.098;2023-02-08T18:36:23;5.30;97.20
63260;DHT22;49390;51.380;0.098;2023-02-08T18:38:52;5.30;97.50
63260;DHT22;49390;51.380;0.098;2023-02-08T18:41:25;5.20;97.60
63260;DHT22;49390;51.380;0.098;2023-02-08T18:43:54;5.20;97.70
63260;DHT22;49390;51.380;0.098;2023-02-08T18:46:24;5.20;97.70
63260;DHT22;49390;51.380;0.098;2023-02-08T18:48:53;5.10;97.50
63260;DHT22;49390;51.380;0.098;2023-02-08T18:51:23;5.10;97.50
63260;DHT22;49390;51.380;0.098;2023-02-08T18:53:53;5.10;97.60
63260;DHT22;49390;51.380;0.098;2023-02-08T18:56:23;5.00;97.90
63260;DHT22;49390;51.380;0.098;2023-02-08T18:58:56;5.00;98.00
63260;DHT22;49390;51.380;0.098;2023-02-08T19:01:27;5.00;98.30
63260;DHT22;49390;51.380;0.098;2023-02-08T19:03:56;5.00;98.50
63260;DHT22;49390;51.380;0.098;2023-02-08T19:06:26;5.00;98.70
63260;DHT22;49390;51.380;0.098;2023-02-08T19:08:56;4.90;99.10
63260;DHT22;49390;51.380;0.098;2023-02-08T19:11:32;4.90;99.70